createdAt,value
2017-11-11T00:00:04.454Z,11.00
2017-11-11T00:02:32.331Z,8.77
2017-11-11T00:05:00.796Z,8.52
2017-11-11T00:07:28.443Z,6.37
2017-11-11T00:09:55.919Z,7.60
2017-11-11T00:12:23.729Z,11.75
2017-11-11T00:14:52.182Z,10.80
2017-11-11T00:17:20.935Z,10.88
2017-11-11T00:19:48.904Z,7.07
2017-11-11T00:22:16.910Z,5.22
2017-11-11T00:24:45.531Z,13.38
2017-11-11T00:27:13.043Z,9.73
2017-11-11T00:29:40.689Z,8.65
2017-11-11T00:32:08.856Z,8.32
2017-11-11T00:34:36.652Z,11.07
2017-11-11T00:37:04.385Z,15.00
2017-11-11T00:39:32.679Z,12.65
2017-11-11T00:42:00.547Z,12.65
2017-11-11T00:44:28.388Z,9.13
2017-11-11T00:46:56.164Z,7.93
2017-11-11T00:49:24.129Z,9.55
2017-11-11T00:51:52.307Z,9.77
2017-11-11T00:54:20.578Z,8.10
2017-11-11T00:56:48.714Z,10.73
2017-11-11T00:59:17.341Z,8.13
2017-11-11T01:01:46.033Z,9.18
2017-11-11T01:04:13.586Z,14.60
2017-11-11T01:06:41.851Z,9.20
2017-11-11T01:09:09.675Z,8.13
2017-11-11T01:11:47.883Z,10.10
2017-11-11T01:14:16.041Z,10.43
2017-11-11T01:16:44.087Z,9.05
2017-11-11T01:19:11.910Z,11.18
2017-11-11T01:21:39.950Z,9.57
2017-11-11T01:24:07.865Z,6.78
2017-11-11T01:26:36.261Z,9.73
2017-11-11T01:29:04.340Z,6.60
2017-11-11T01:31:32.013Z,11.38
2017-11-11T01:33:59.806Z,8.60
2017-11-11T01:36:27.546Z,17.60
2017-11-11T01:38:55.714Z,12.30
2017-11-11T01:41:27.336Z,11.43
2017-11-11T01:43:57.883Z,8.75
2017-11-11T01:46:25.858Z,6.45
2017-11-11T01:48:53.941Z,9.40
2017-11-11T01:51:21.561Z,10.70
2017-11-11T01:53:49.316Z,12.37
2017-11-11T01:56:18.856Z,11.80
2017-11-11T01:58:48.186Z,6.12
2017-11-11T02:01:16.544Z,8.63
2017-11-11T02:03:44.926Z,9.23
2017-11-11T02:06:13.209Z,7.90
2017-11-11T02:08:41.742Z,5.37
2017-11-11T02:11:10.269Z,12.40
2017-11-11T02:13:38.448Z,9.25
2017-11-11T02:16:06.190Z,14.15
2017-11-11T02:18:34.175Z,10.45
2017-11-11T02:21:02.356Z,11.52
2017-11-11T02:23:30.533Z,12.98
2017-11-11T02:25:58.589Z,16.67
2017-11-11T02:28:26.427Z,9.32
2017-11-11T02:30:54.090Z,17.30
2017-11-11T02:33:21.682Z,7.85
2017-11-11T02:35:49.796Z,9.68
2017-11-11T02:38:17.504Z,9.20
2017-11-11T02:40:45.300Z,6.90
2017-11-11T02:43:16.375Z,11.20
2017-11-11T02:45:44.081Z,21.23
2017-11-11T02:48:11.800Z,18.27
2017-11-11T02:50:39.433Z,10.70
2017-11-11T02:53:07.065Z,15.40
2017-11-11T02:55:34.717Z,5.18
2017-11-11T02:58:05.389Z,12.02
2017-11-11T03:00:33.769Z,7.35
2017-11-11T03:03:02.213Z,10.52
2017-11-11T03:05:30.359Z,8.68
2017-11-11T03:07:57.854Z,7.78
2017-11-11T03:10:25.618Z,12.27
2017-11-11T03:12:53.063Z,6.12
2017-11-11T03:15:20.555Z,15.98
2017-11-11T03:17:47.998Z,7.93
2017-11-11T03:20:15.470Z,16.65
2017-11-11T03:22:42.899Z,21.90
2017-11-11T03:25:10.358Z,11.60
2017-11-11T03:27:37.799Z,7.90
2017-11-11T03:30:05.436Z,7.10
2017-11-11T03:32:32.878Z,16.55
2017-11-11T03:35:00.467Z,7.68
2017-11-11T03:37:27.926Z,6.20
2017-11-11T03:39:55.362Z,9.98
2017-11-11T03:42:22.806Z,6.72
2017-11-11T03:44:54.301Z,9.38
2017-11-11T03:47:21.731Z,6.20
2017-11-11T03:49:49.206Z,8.60
2017-11-11T03:52:16.882Z,13.27
2017-11-11T03:54:44.323Z,13.40
2017-11-11T03:57:11.802Z,6.65
2017-11-11T03:59:39.240Z,9.98
2017-11-11T04:02:06.782Z,9.18
2017-11-11T04:04:34.257Z,6.03
2017-11-11T04:07:01.800Z,8.98
2017-11-11T04:09:29.251Z,9.77
2017-11-11T04:11:56.727Z,11.70
2017-11-11T04:14:27.787Z,8.48
2017-11-11T04:16:55.226Z,13.52
2017-11-11T04:19:22.746Z,9.23
2017-11-11T04:21:50.199Z,7.07
2017-11-11T04:24:17.664Z,12.52
2017-11-11T04:26:45.118Z,8.82
2017-11-11T04:29:12.562Z,12.15
2017-11-11T04:31:40.015Z,8.90
2017-11-11T04:34:07.697Z,11.38
2017-11-11T04:36:35.153Z,7.65
2017-11-11T04:39:02.951Z,11.57
2017-11-11T04:41:30.411Z,10.30
2017-11-11T04:43:57.971Z,18.37
2017-11-11T04:46:25.415Z,12.48
2017-11-11T04:48:53.131Z,14.00
2017-11-11T04:51:20.599Z,10.73
2017-11-11T04:53:48.055Z,15.38
2017-11-11T04:56:15.532Z,14.75
2017-11-11T04:58:42.964Z,12.93
2017-11-11T05:01:10.419Z,12.05
2017-11-11T05:03:38.090Z,15.75
2017-11-11T05:06:05.878Z,12.80
2017-11-11T05:08:33.396Z,13.95
2017-11-11T05:11:00.818Z,14.00
2017-11-11T05:13:28.490Z,15.57
2017-11-11T05:15:55.935Z,17.80
2017-11-11T05:18:23.423Z,17.23
2017-11-11T05:20:52.779Z,27.37
2017-11-11T05:23:20.243Z,16.45
2017-11-11T05:25:47.890Z,20.02
2017-11-11T05:28:15.332Z,20.17
2017-11-11T05:30:48.170Z,11.00
2017-11-11T05:33:15.638Z,20.65
2017-11-11T05:35:43.248Z,16.35
2017-11-11T05:38:10.868Z,14.32
2017-11-11T05:40:38.313Z,18.67
2017-11-11T05:43:06.022Z,28.90
2017-11-11T05:45:37.214Z,14.05
2017-11-11T05:48:04.974Z,15.20
2017-11-11T05:50:32.450Z,16.65
2017-11-11T05:52:59.875Z,16.48
2017-11-11T05:55:27.367Z,27.15
2017-11-11T05:57:54.806Z,15.73
2017-11-11T06:00:22.263Z,23.23
2017-11-11T06:02:49.906Z,15.25
2017-11-11T06:05:17.381Z,41.85
2017-11-11T06:07:44.819Z,21.55
2017-11-11T06:10:12.303Z,18.75
2017-11-11T06:12:40.502Z,18.50
2017-11-11T06:15:07.992Z,14.85
2017-11-11T06:17:39.063Z,17.90
2017-11-11T06:20:06.502Z,16.50
2017-11-11T06:22:34.155Z,18.45
2017-11-11T06:25:01.603Z,24.50
2017-11-11T06:27:29.130Z,20.12
2017-11-11T06:29:56.582Z,21.45
2017-11-11T06:32:25.039Z,17.35
2017-11-11T06:34:57.387Z,21.30
2017-11-11T06:37:25.032Z,18.67
2017-11-11T06:39:52.477Z,22.65
2017-11-11T06:42:19.923Z,19.17
2017-11-11T06:44:48.164Z,17.83
2017-11-11T06:47:20.211Z,19.20
2017-11-11T06:49:47.667Z,16.52
2017-11-11T06:52:15.137Z,14.60
2017-11-11T06:54:42.580Z,18.62
2017-11-11T06:57:10.146Z,18.87
2017-11-11T06:59:38.199Z,15.90
2017-11-11T07:02:09.003Z,16.17
2017-11-11T07:04:36.465Z,19.23
2017-11-11T07:07:03.916Z,17.95
2017-11-11T07:09:31.621Z,18.58
2017-11-11T07:11:59.070Z,19.20
2017-11-11T07:14:26.561Z,18.40
2017-11-11T07:16:54.002Z,18.87
2017-11-11T07:19:24.540Z,19.35
2017-11-11T07:21:52.019Z,19.73
2017-11-11T07:24:19.458Z,15.57
2017-11-11T07:26:46.918Z,16.40
2017-11-11T07:29:14.390Z,12.50
2017-11-11T07:31:41.818Z,21.23
2017-11-11T07:34:09.258Z,16.77
2017-11-11T07:36:40.402Z,12.93
2017-11-11T07:39:07.874Z,16.17
2017-11-11T07:41:35.309Z,14.50
2017-11-11T07:44:02.792Z,14.60
2017-11-11T07:46:30.755Z,13.45
2017-11-11T07:48:59.353Z,16.73
2017-11-11T07:51:26.923Z,14.73
2017-11-11T07:53:54.969Z,24.70
2017-11-11T07:56:22.446Z,11.63
2017-11-11T07:58:49.878Z,19.30
2017-11-11T08:01:17.367Z,14.95
2017-11-11T08:03:44.818Z,13.45
2017-11-11T08:06:13.072Z,10.93
2017-11-11T08:08:40.551Z,18.55
2017-11-11T08:11:08.012Z,22.50
2017-11-11T08:13:35.446Z,9.40
2017-11-11T08:16:02.926Z,13.82
2017-11-11T08:18:31.357Z,14.07
2017-11-11T08:20:58.835Z,14.20
2017-11-11T08:23:26.277Z,16.12
2017-11-11T08:25:53.734Z,12.68
2017-11-11T08:28:21.226Z,17.25
2017-11-11T08:30:48.674Z,12.70
2017-11-11T08:33:16.940Z,14.68
2017-11-11T08:35:44.420Z,14.80
2017-11-11T08:38:11.987Z,10.65
2017-11-11T08:40:39.958Z,15.57
2017-11-11T08:43:08.660Z,18.42
2017-11-11T08:45:36.248Z,9.18
2017-11-11T08:48:07.805Z,20.95
2017-11-11T08:50:35.308Z,10.95
2017-11-11T08:53:02.866Z,11.73
2017-11-11T08:55:31.215Z,12.77
2017-11-11T08:57:59.192Z,9.32
2017-11-11T09:00:27.474Z,10.23
2017-11-11T09:02:56.169Z,12.68
2017-11-11T09:05:24.343Z,11.00
2017-11-11T09:07:53.182Z,13.27
2017-11-11T09:10:21.805Z,14.05
2017-11-11T09:12:49.640Z,16.92
2017-11-11T09:15:17.574Z,8.80
2017-11-11T09:17:46.055Z,9.52
2017-11-11T09:20:13.912Z,11.20
2017-11-11T09:22:41.479Z,22.52
2017-11-11T09:25:09.919Z,16.48
2017-11-11T09:27:38.279Z,11.98
2017-11-11T09:30:05.797Z,16.80
2017-11-11T09:32:33.310Z,11.15
2017-11-11T09:35:00.815Z,10.70
2017-11-11T09:37:29.257Z,13.43
2017-11-11T09:39:56.768Z,17.95
2017-11-11T09:42:25.030Z,21.70
2017-11-11T09:44:52.514Z,18.83
2017-11-11T09:47:20.144Z,15.02
2017-11-11T09:49:47.620Z,18.33
2017-11-11T09:52:15.150Z,18.83
2017-11-11T09:54:42.699Z,9.88
2017-11-11T09:57:10.244Z,22.98
2017-11-11T09:59:37.797Z,10.80
2017-11-11T10:02:05.381Z,15.45
2017-11-11T10:04:37.104Z,10.90
2017-11-11T10:07:04.583Z,9.10
2017-11-11T10:09:32.206Z,10.77
2017-11-11T10:11:59.844Z,9.63
2017-11-11T10:14:28.679Z,10.10
2017-11-11T10:16:56.317Z,8.85
2017-11-11T10:19:23.975Z,14.87
2017-11-11T10:21:51.621Z,8.90
2017-11-11T10:24:19.360Z,9.95
2017-11-11T10:26:46.888Z,14.20
2017-11-11T10:29:14.459Z,7.87
2017-11-11T10:31:43.006Z,8.07
2017-11-11T10:34:10.500Z,7.95
2017-11-11T10:36:38.411Z,10.73
2017-11-11T10:39:05.930Z,13.43
2017-11-11T10:41:33.590Z,8.52
2017-11-11T10:44:01.293Z,11.50
2017-11-11T10:46:29.971Z,10.20
2017-11-11T10:48:57.599Z,11.23
2017-11-11T10:51:25.320Z,10.98
2017-11-11T10:53:52.931Z,8.80
2017-11-11T10:56:20.921Z,11.20
2017-11-11T10:58:49.297Z,5.12
2017-11-11T11:01:17.900Z,9.10
2017-11-11T11:03:45.678Z,7.25
2017-11-11T11:06:16.616Z,7.80
2017-11-11T11:08:44.216Z,11.82
2017-11-11T11:11:12.816Z,5.55
2017-11-11T11:13:40.651Z,9.48
2017-11-11T11:16:08.714Z,5.78
2017-11-11T11:18:36.417Z,12.75
2017-11-11T11:21:04.073Z,5.72
2017-11-11T11:23:31.597Z,7.80
2017-11-11T11:25:59.241Z,5.30
2017-11-11T11:28:26.856Z,6.40
2017-11-11T11:30:54.988Z,6.32
2017-11-11T11:33:22.552Z,7.50
2017-11-11T11:35:53.856Z,8.60
2017-11-11T11:38:21.412Z,11.10
2017-11-11T11:40:50.091Z,5.30
2017-11-11T11:43:17.695Z,11.38
2017-11-11T11:45:45.278Z,9.27
2017-11-11T11:48:13.249Z,10.38
2017-11-11T11:50:40.975Z,4.43
2017-11-11T11:53:08.726Z,4.43
2017-11-11T11:55:36.290Z,11.82
2017-11-11T11:58:04.504Z,6.60
2017-11-11T12:00:32.257Z,7.18
2017-11-11T12:02:59.898Z,7.40
2017-11-11T12:05:27.688Z,3.60
2017-11-11T12:07:55.414Z,8.35
2017-11-11T12:10:22.997Z,9.27
2017-11-11T12:12:50.599Z,13.10
2017-11-11T12:15:18.164Z,15.88
2017-11-11T12:17:46.272Z,41.17
2017-11-11T12:20:14.041Z,6.85
2017-11-11T12:22:41.859Z,10.02
2017-11-11T12:25:10.390Z,7.07
2017-11-11T12:27:37.929Z,6.07
2017-11-11T12:30:07.814Z,10.43
2017-11-11T12:32:35.573Z,7.00
2017-11-11T12:35:03.242Z,6.97
2017-11-11T12:37:31.684Z,5.00
2017-11-11T12:39:59.194Z,6.00
2017-11-11T12:42:27.488Z,7.87
2017-11-11T12:44:55.583Z,8.00
2017-11-11T12:47:23.072Z,4.32
2017-11-11T12:49:50.545Z,5.50
2017-11-11T12:52:18.100Z,6.53
2017-11-11T12:54:45.563Z,5.62
2017-11-11T12:57:13.920Z,12.43
2017-11-11T12:59:41.491Z,6.72
2017-11-11T13:02:08.972Z,6.50
2017-11-11T13:04:36.527Z,3.20
2017-11-11T13:07:04.867Z,6.78
2017-11-11T13:09:32.380Z,4.07
2017-11-11T13:12:00.630Z,9.07
2017-11-11T13:14:28.241Z,5.97
2017-11-11T13:16:55.818Z,9.52
2017-11-11T13:19:23.368Z,5.35
2017-11-11T13:21:50.934Z,12.00
2017-11-11T13:24:18.628Z,6.68
2017-11-11T13:26:46.151Z,7.22
2017-11-11T13:29:13.719Z,4.72
2017-11-11T13:31:41.234Z,3.40
2017-11-11T13:34:08.778Z,5.25
2017-11-11T13:36:37.372Z,6.60
2017-11-11T13:39:04.915Z,4.80
2017-11-11T13:41:33.029Z,5.62
2017-11-11T13:44:00.614Z,5.97
2017-11-11T13:46:28.316Z,7.82
2017-11-11T13:48:56.684Z,7.55
2017-11-11T13:51:25.276Z,5.22
2017-11-11T13:53:53.456Z,5.40
2017-11-11T13:56:20.945Z,4.53
2017-11-11T13:58:49.087Z,8.27
2017-11-11T14:01:16.883Z,4.00
2017-11-11T14:03:44.819Z,7.00
2017-11-11T14:06:12.819Z,3.75
2017-11-11T14:08:47.932Z,6.53
2017-11-11T14:11:15.644Z,5.43
2017-11-11T14:13:43.387Z,3.85
2017-11-11T14:16:11.175Z,4.35
2017-11-11T14:18:39.479Z,4.10
2017-11-11T14:21:08.535Z,6.40
2017-11-11T14:23:37.309Z,4.78
2017-11-11T14:26:05.315Z,6.50
2017-11-11T14:28:33.254Z,6.03
2017-11-11T14:31:01.434Z,4.80
2017-11-11T14:33:29.153Z,8.43
2017-11-11T14:35:56.839Z,7.30
2017-11-11T14:38:25.125Z,5.72
2017-11-11T14:40:57.802Z,4.60
2017-11-11T14:43:27.074Z,3.78
2017-11-11T14:45:55.658Z,5.95
2017-11-11T14:48:23.254Z,4.40
2017-11-11T14:50:50.831Z,3.97
2017-11-11T14:53:18.681Z,7.72
2017-11-11T14:55:46.233Z,8.60
2017-11-11T14:58:13.762Z,7.72
2017-11-11T15:00:41.269Z,4.05
2017-11-11T15:03:08.768Z,4.95
2017-11-11T15:05:36.745Z,4.22
2017-11-11T15:08:04.335Z,7.20
2017-11-11T15:10:31.878Z,5.40
2017-11-11T15:12:59.550Z,9.20
2017-11-11T15:15:28.274Z,4.55
2017-11-11T15:17:55.835Z,7.10
2017-11-11T15:20:23.353Z,3.30
2017-11-11T15:22:50.883Z,3.50
2017-11-11T15:25:18.445Z,3.60
2017-11-11T15:27:47.336Z,7.57
2017-11-11T15:30:14.897Z,4.65
2017-11-11T15:32:42.547Z,6.20
2017-11-11T15:35:10.453Z,11.65
2017-11-11T15:37:38.753Z,6.32
2017-11-11T15:40:11.176Z,8.50
2017-11-11T15:42:39.159Z,7.03
2017-11-11T15:45:07.736Z,5.78
2017-11-11T15:47:35.633Z,5.72
2017-11-11T15:50:03.415Z,6.57
2017-11-11T15:52:31.064Z,11.02
2017-11-11T15:54:58.727Z,6.28
2017-11-11T15:57:27.375Z,5.22
2017-11-11T15:59:56.035Z,7.80
2017-11-11T16:02:26.314Z,6.37
2017-11-11T16:04:54.551Z,3.40
2017-11-11T16:07:22.049Z,6.20
2017-11-11T16:09:50.264Z,6.35
2017-11-11T16:12:18.788Z,3.62
2017-11-11T16:14:46.332Z,6.20
2017-11-11T16:17:14.129Z,7.85
2017-11-11T16:19:42.025Z,4.65
2017-11-11T16:22:09.527Z,3.58
2017-11-11T16:24:37.305Z,11.90
2017-11-11T16:27:04.921Z,3.42
2017-11-11T16:29:33.268Z,4.60
2017-11-11T16:32:00.787Z,6.05
2017-11-11T16:34:28.331Z,6.37
2017-11-11T16:36:55.917Z,6.05
2017-11-11T16:39:23.944Z,7.47
2017-11-11T16:41:52.292Z,4.78
2017-11-11T16:44:19.849Z,4.20
2017-11-11T16:46:47.396Z,5.62
2017-11-11T16:49:14.864Z,4.00
2017-11-11T16:51:42.835Z,12.00
2017-11-11T16:54:10.280Z,8.73
2017-11-11T16:56:37.714Z,4.47
2017-11-11T16:59:05.186Z,8.13
2017-11-11T17:01:33.381Z,8.30
2017-11-11T17:04:00.816Z,6.85
2017-11-11T17:06:28.283Z,6.30
2017-11-11T17:08:55.729Z,7.18
2017-11-11T17:11:27.387Z,7.60
2017-11-11T17:13:54.941Z,33.05
2017-11-11T17:16:23.005Z,12.48
2017-11-11T17:18:50.472Z,29.55
2017-11-11T17:21:17.896Z,9.07
2017-11-11T17:23:45.664Z,6.93
2017-11-11T17:26:13.139Z,12.20
2017-11-11T17:28:40.635Z,10.88
2017-11-11T17:31:08.330Z,11.35
2017-11-11T17:33:37.031Z,7.70
2017-11-11T17:36:04.468Z,6.93
2017-11-11T17:38:32.687Z,7.78
2017-11-11T17:41:00.176Z,14.60
2017-11-11T17:43:27.640Z,9.80
2017-11-11T17:45:55.104Z,7.87
2017-11-11T17:48:22.560Z,5.18
2017-11-11T17:50:50.001Z,8.32
2017-11-11T17:53:17.496Z,4.85
2017-11-11T17:55:45.915Z,4.32
2017-11-11T17:58:15.139Z,7.43
2017-11-11T18:00:43.101Z,5.15
2017-11-11T18:03:10.970Z,4.72
2017-11-11T18:05:38.480Z,8.02
2017-11-11T18:08:06.270Z,6.35
2017-11-11T18:10:34.918Z,5.20
2017-11-11T18:13:07.781Z,5.53
2017-11-11T18:15:35.768Z,4.15
2017-11-11T18:18:03.474Z,5.43
2017-11-11T18:20:31.455Z,9.35
2017-11-11T18:23:00.443Z,4.47
2017-11-11T18:25:28.105Z,8.90
2017-11-11T18:28:03.588Z,4.95
2017-11-11T18:30:31.967Z,7.18
2017-11-11T18:33:00.101Z,7.18
2017-11-11T18:35:28.617Z,10.38
2017-11-11T18:37:56.469Z,7.68
2017-11-11T18:40:25.217Z,7.93
2017-11-11T18:42:52.849Z,6.03
2017-11-11T18:45:23.227Z,6.30
2017-11-11T18:47:50.896Z,4.90
2017-11-11T18:50:18.880Z,4.65
2017-11-11T18:52:46.823Z,7.57
2017-11-11T18:55:15.320Z,6.87
2017-11-11T18:57:44.143Z,8.95
2017-11-11T19:00:12.496Z,6.30
2017-11-11T19:02:40.060Z,7.93
2017-11-11T19:05:07.518Z,12.10
2017-11-11T19:07:35.178Z,10.80
2017-11-11T19:10:02.779Z,5.85
2017-11-11T19:12:30.712Z,8.65
2017-11-11T19:14:58.514Z,12.07
2017-11-11T19:17:26.945Z,11.45
2017-11-11T19:19:54.980Z,12.70
2017-11-11T19:22:23.819Z,9.00
2017-11-11T19:24:51.351Z,8.52
2017-11-11T19:27:19.127Z,6.60
2017-11-11T19:29:46.697Z,13.23
2017-11-11T19:32:14.451Z,7.85
2017-11-11T19:34:42.063Z,8.48
2017-11-11T19:37:09.855Z,6.57
2017-11-11T19:39:37.848Z,6.15
2017-11-11T19:42:05.983Z,5.40
2017-11-11T19:44:33.644Z,3.35
2017-11-11T19:47:01.331Z,6.32
2017-11-11T19:49:28.987Z,5.62
2017-11-11T19:51:56.599Z,5.28
2017-11-11T19:54:24.962Z,7.47
2017-11-11T19:56:52.635Z,3.67
2017-11-11T19:59:20.501Z,6.12
2017-11-11T20:01:49.848Z,4.45
2017-11-11T20:04:17.715Z,4.87
2017-11-11T20:06:45.236Z,3.00
2017-11-11T20:09:12.810Z,3.92
2017-11-11T20:11:40.291Z,2.30
2017-11-11T20:14:07.900Z,2.65
2017-11-11T20:16:36.206Z,4.40
2017-11-11T20:19:03.765Z,1.65
2017-11-11T20:21:31.259Z,1.50
2017-11-11T20:23:58.727Z,2.55
2017-11-11T20:26:26.547Z,1.70
2017-11-11T20:28:54.950Z,2.28
2017-11-11T20:31:22.464Z,1.67
2017-11-11T20:33:50.189Z,2.78
2017-11-11T20:36:18.108Z,2.37
2017-11-11T20:38:45.813Z,2.50
2017-11-11T20:41:13.455Z,2.08
2017-11-11T20:43:40.895Z,2.40
2017-11-11T20:46:08.477Z,3.70
2017-11-11T20:48:35.963Z,2.15
2017-11-11T20:51:03.411Z,2.25
2017-11-11T20:53:30.854Z,3.15
2017-11-11T20:55:58.314Z,6.35
2017-11-11T20:58:25.750Z,2.35
2017-11-11T21:00:53.241Z,2.12
2017-11-11T21:03:20.724Z,1.33
2017-11-11T21:05:48.169Z,4.10
2017-11-11T21:08:15.642Z,4.47
2017-11-11T21:10:43.115Z,5.28
2017-11-11T21:13:10.594Z,2.30
2017-11-11T21:15:38.032Z,5.65
2017-11-11T21:18:05.487Z,1.30
2017-11-11T21:20:32.975Z,1.42
2017-11-11T21:23:00.420Z,2.08
2017-11-11T21:25:28.726Z,3.75
2017-11-11T21:27:56.208Z,2.25
2017-11-11T21:30:23.818Z,4.28
2017-11-11T21:32:51.242Z,2.45
2017-11-11T21:35:19.474Z,1.60
2017-11-11T21:37:46.962Z,2.42
2017-11-11T21:40:14.444Z,1.33
2017-11-11T21:42:41.902Z,2.12
2017-11-11T21:45:09.343Z,2.45
2017-11-11T21:47:41.071Z,2.25
2017-11-11T21:50:09.392Z,2.67
2017-11-11T21:52:37.624Z,3.72
2017-11-11T21:55:05.067Z,4.05
2017-11-11T21:57:32.557Z,3.60
2017-11-11T22:00:00.986Z,2.55
2017-11-11T22:02:32.882Z,3.35
2017-11-11T22:05:00.339Z,2.50
2017-11-11T22:07:27.794Z,3.53
2017-11-11T22:09:55.254Z,2.53
2017-11-11T22:12:23.524Z,3.33
2017-11-11T22:14:50.981Z,3.00
2017-11-11T22:17:18.635Z,2.87
2017-11-11T22:19:46.295Z,4.55
2017-11-11T22:22:13.736Z,3.62
2017-11-11T22:24:41.386Z,2.90
2017-11-11T22:27:08.891Z,2.60
2017-11-11T22:29:36.658Z,2.72
2017-11-11T22:32:04.103Z,3.37
2017-11-11T22:34:31.562Z,3.60
2017-11-11T22:36:59.001Z,5.70
2017-11-11T22:39:26.509Z,4.97
2017-11-11T22:41:53.952Z,3.28
2017-11-11T22:44:22.396Z,3.25
2017-11-11T22:46:49.842Z,5.32
2017-11-11T22:49:17.312Z,4.00
2017-11-11T22:51:44.758Z,5.47
2017-11-11T22:54:12.198Z,5.65
2017-11-11T22:56:39.702Z,4.85
2017-11-11T22:59:07.217Z,3.95
2017-11-11T23:01:34.668Z,6.10
2017-11-11T23:04:02.580Z,5.90
2017-11-11T23:06:30.135Z,5.37
2017-11-11T23:08:57.590Z,5.07
2017-11-11T23:11:25.035Z,6.05
2017-11-11T23:13:52.839Z,6.03
2017-11-11T23:16:20.565Z,5.07
2017-11-11T23:18:47.994Z,6.45
2017-11-11T23:21:15.467Z,5.47
2017-11-11T23:23:42.938Z,4.62
2017-11-11T23:26:10.367Z,5.68
2017-11-11T23:28:37.837Z,5.03
2017-11-11T23:31:06.046Z,5.75
2017-11-11T23:33:33.562Z,7.65
2017-11-11T23:36:01.023Z,5.93
2017-11-11T23:38:28.471Z,5.45
2017-11-11T23:40:55.914Z,7.55
2017-11-11T23:43:24.155Z,5.30
2017-11-11T23:45:51.897Z,8.63
2017-11-11T23:48:22.739Z,6.57
2017-11-11T23:50:50.183Z,8.25
2017-11-11T23:53:17.637Z,9.43
2017-11-11T23:55:45.102Z,8.60
2017-11-11T23:58:12.563Z,8.75
